createdAt,value
2017-10-07T00:00:27.528Z,14.40
2017-10-07T00:02:53.760Z,12.27
2017-10-07T00:05:19.986Z,13.90
2017-10-07T00:07:46.240Z,12.80
2017-10-07T00:10:12.467Z,13.00
2017-10-07T00:12:38.696Z,13.70
2017-10-07T00:15:04.912Z,14.53
2017-10-07T00:17:31.176Z,15.10
2017-10-07T00:19:57.423Z,12.90
2017-10-07T00:22:23.642Z,13.70
2017-10-07T00:24:49.859Z,13.17
2017-10-07T00:27:16.083Z,23.00
2017-10-07T00:29:42.323Z,13.90
2017-10-07T00:32:08.545Z,13.80
2017-10-07T00:34:34.891Z,12.90
2017-10-07T00:37:01.123Z,13.03
2017-10-07T00:39:27.370Z,14.10
2017-10-07T00:41:53.639Z,14.90
2017-10-07T00:44:19.839Z,14.70
2017-10-07T00:46:46.054Z,15.87
2017-10-07T00:49:12.275Z,14.87
2017-10-07T00:51:38.513Z,14.03
2017-10-07T00:54:04.811Z,13.70
2017-10-07T00:56:31.165Z,14.20
2017-10-07T00:58:57.403Z,11.30
2017-10-07T01:01:23.639Z,14.20
2017-10-07T01:03:49.890Z,13.33
2017-10-07T01:06:16.131Z,12.70
2017-10-07T01:08:42.375Z,14.37
2017-10-07T01:11:08.614Z,12.43
2017-10-07T01:13:34.851Z,12.20
2017-10-07T01:16:01.097Z,14.60
2017-10-07T01:18:27.386Z,14.10
2017-10-07T01:20:53.626Z,12.70
2017-10-07T01:23:19.888Z,12.83
2017-10-07T01:25:46.117Z,12.67
2017-10-07T01:28:12.344Z,11.97
2017-10-07T01:30:38.590Z,9.90
2017-10-07T01:33:04.828Z,11.03
2017-10-07T01:35:31.069Z,12.50
2017-10-07T01:37:57.326Z,14.60
2017-10-07T01:40:23.564Z,11.17
2017-10-07T01:42:49.861Z,13.17
2017-10-07T01:45:16.103Z,12.23
2017-10-07T01:47:42.325Z,13.03
2017-10-07T01:50:08.549Z,12.77
2017-10-07T01:52:34.793Z,14.60
2017-10-07T01:55:01.031Z,13.60
2017-10-07T01:57:27.269Z,12.43
2017-10-07T01:59:53.715Z,13.00
2017-10-07T02:02:19.959Z,14.10
2017-10-07T02:04:46.192Z,12.40
2017-10-07T02:07:12.418Z,13.70
2017-10-07T02:09:38.655Z,13.90
2017-10-07T02:12:04.894Z,13.43
2017-10-07T02:14:31.154Z,14.03
2017-10-07T02:16:57.383Z,14.20
2017-10-07T02:19:23.661Z,13.50
2017-10-07T02:21:49.910Z,14.20
2017-10-07T02:24:16.137Z,14.50
2017-10-07T02:26:42.443Z,14.80
2017-10-07T02:29:08.661Z,16.77
2017-10-07T02:31:34.937Z,14.30
2017-10-07T02:34:01.212Z,14.60
2017-10-07T02:36:27.440Z,15.17
2017-10-07T02:38:53.721Z,15.47
2017-10-07T02:41:19.939Z,14.80
2017-10-07T02:43:46.151Z,13.20
2017-10-07T02:46:12.372Z,15.30
2017-10-07T02:48:38.612Z,15.03
2017-10-07T02:51:04.838Z,14.40
2017-10-07T02:53:31.059Z,17.30
2017-10-07T02:55:57.417Z,18.33
2017-10-07T02:58:23.680Z,18.17
2017-10-07T03:00:50.042Z,15.40
2017-10-07T03:03:16.300Z,17.60
2017-10-07T03:05:42.539Z,17.70
2017-10-07T03:08:08.775Z,16.60
2017-10-07T03:10:35.021Z,16.90
2017-10-07T03:13:01.248Z,16.10
2017-10-07T03:15:27.477Z,14.03
2017-10-07T03:17:53.704Z,14.97
2017-10-07T03:20:19.976Z,14.70
2017-10-07T03:22:46.208Z,14.80
2017-10-07T03:25:12.446Z,16.27
2017-10-07T03:27:38.689Z,14.93
2017-10-07T03:30:04.937Z,15.97
2017-10-07T03:32:31.184Z,15.57
2017-10-07T03:34:57.414Z,15.10
2017-10-07T03:37:23.635Z,15.73
2017-10-07T03:39:49.849Z,15.97
2017-10-07T03:42:16.076Z,15.80
2017-10-07T03:44:42.359Z,15.10
2017-10-07T03:47:08.583Z,15.50
2017-10-07T03:49:34.829Z,15.73
2017-10-07T03:52:01.082Z,15.97
2017-10-07T03:54:27.483Z,15.40
2017-10-07T03:56:53.703Z,16.90
2017-10-07T03:59:19.932Z,18.23
2017-10-07T04:01:46.182Z,18.47
2017-10-07T04:04:12.417Z,19.20
2017-10-07T04:06:38.669Z,18.53
2017-10-07T04:09:04.933Z,20.00
2017-10-07T04:11:31.167Z,22.30
2017-10-07T04:13:57.373Z,19.77
2017-10-07T04:16:23.637Z,16.47
2017-10-07T04:18:49.867Z,16.77
2017-10-07T04:21:16.167Z,16.97
2017-10-07T04:23:42.397Z,16.30
2017-10-07T04:26:08.623Z,15.50
2017-10-07T04:28:34.878Z,17.70
2017-10-07T04:31:01.110Z,38.10
2017-10-07T04:33:27.334Z,12.13
2017-10-07T04:35:53.568Z,13.10
2017-10-07T04:38:19.789Z,11.70
2017-10-07T04:40:46.041Z,12.27
2017-10-07T04:43:12.276Z,12.77
2017-10-07T04:45:38.568Z,11.17
2017-10-07T04:48:04.811Z,13.63
2017-10-07T04:50:31.045Z,12.83
2017-10-07T04:52:57.282Z,13.67
2017-10-07T04:55:23.491Z,13.57
2017-10-07T04:57:49.712Z,13.10
2017-10-07T05:00:15.938Z,11.87
2017-10-07T05:02:42.155Z,13.33
2017-10-07T05:05:08.379Z,14.70
2017-10-07T05:07:34.619Z,13.97
2017-10-07T05:10:00.992Z,11.97
2017-10-07T05:12:27.221Z,10.77
2017-10-07T05:14:53.439Z,9.97
2017-10-07T05:17:19.694Z,9.37
2017-10-07T05:19:45.903Z,10.73
2017-10-07T05:22:12.138Z,10.00
2017-10-07T05:24:38.468Z,11.10
2017-10-07T05:27:04.715Z,10.80
2017-10-07T05:29:31.035Z,10.47
2017-10-07T05:31:57.482Z,7.90
2017-10-07T05:34:23.782Z,7.03
2017-10-07T05:36:50.052Z,6.80
2017-10-07T05:39:16.284Z,7.60
2017-10-07T05:41:42.516Z,7.10
2017-10-07T05:44:08.860Z,7.20
2017-10-07T05:46:35.235Z,8.27
2017-10-07T05:49:01.467Z,7.70
2017-10-07T05:51:27.722Z,7.63
2017-10-07T05:53:53.999Z,9.93
2017-10-07T05:56:20.235Z,8.43
2017-10-07T05:58:46.473Z,10.77
2017-10-07T06:01:12.837Z,7.17
2017-10-07T06:03:39.068Z,6.20
2017-10-07T06:06:05.304Z,8.57
2017-10-07T06:08:31.541Z,8.60
2017-10-07T06:10:57.810Z,5.63
2017-10-07T06:13:24.043Z,6.17
2017-10-07T06:15:50.247Z,6.70
2017-10-07T06:18:16.464Z,7.83
2017-10-07T06:20:42.685Z,7.70
2017-10-07T06:23:08.905Z,7.77
2017-10-07T06:25:35.223Z,7.13
2017-10-07T06:28:01.459Z,7.63
2017-10-07T06:30:27.677Z,6.50
2017-10-07T06:32:53.882Z,6.10
2017-10-07T06:35:20.117Z,5.97
2017-10-07T06:37:46.353Z,6.77
2017-10-07T06:40:12.567Z,7.57
2017-10-07T06:42:38.793Z,6.40
2017-10-07T06:45:05.097Z,8.13
2017-10-07T06:47:31.352Z,5.40
2017-10-07T06:49:57.561Z,6.60
2017-10-07T06:52:23.762Z,7.27
2017-10-07T06:54:49.992Z,6.90
2017-10-07T06:57:16.214Z,7.83
2017-10-07T06:59:42.435Z,9.20
2017-10-07T07:02:08.679Z,7.37
2017-10-07T07:04:34.957Z,9.10
2017-10-07T07:07:01.177Z,17.67
2017-10-07T07:09:27.413Z,14.97
2017-10-07T07:11:53.684Z,12.23
2017-10-07T07:14:19.898Z,12.17
2017-10-07T07:16:46.134Z,16.00
2017-10-07T07:19:12.420Z,12.63
2017-10-07T07:21:38.765Z,14.07
2017-10-07T07:24:05.066Z,11.17
2017-10-07T07:26:31.337Z,13.00
2017-10-07T07:28:57.567Z,17.27
2017-10-07T07:31:23.825Z,32.30
2017-10-07T07:33:50.108Z,14.10
2017-10-07T07:36:16.321Z,12.63
2017-10-07T07:38:42.621Z,13.33
2017-10-07T07:41:08.844Z,12.30
2017-10-07T07:43:35.046Z,18.83
2017-10-07T07:46:01.318Z,13.57
2017-10-07T07:48:27.512Z,14.43
2017-10-07T07:50:53.777Z,12.17
2017-10-07T07:53:20.002Z,10.90
2017-10-07T07:55:46.194Z,12.07
2017-10-07T07:58:12.424Z,12.30
2017-10-07T08:00:38.649Z,11.53
2017-10-07T08:03:04.905Z,9.67
2017-10-07T08:05:31.120Z,14.20
2017-10-07T08:07:57.324Z,12.83
2017-10-07T08:10:23.578Z,8.00
2017-10-07T08:12:49.799Z,7.30
2017-10-07T08:15:16.083Z,6.43
2017-10-07T08:17:42.323Z,8.70
2017-10-07T08:20:08.655Z,7.07
2017-10-07T08:22:34.899Z,12.90
2017-10-07T08:25:01.105Z,9.20
2017-10-07T08:27:27.345Z,7.33
2017-10-07T08:29:53.570Z,11.57
2017-10-07T08:32:19.804Z,10.43
2017-10-07T08:34:46.057Z,9.23
2017-10-07T08:37:12.295Z,8.93
2017-10-07T08:39:38.565Z,9.23
2017-10-07T08:42:04.821Z,8.90
2017-10-07T08:44:31.069Z,6.70
2017-10-07T08:46:57.395Z,9.17
2017-10-07T08:49:23.630Z,10.13
2017-10-07T08:51:49.876Z,11.90
2017-10-07T08:54:16.079Z,9.13
2017-10-07T08:56:42.455Z,7.37
2017-10-07T08:59:08.730Z,13.93
2017-10-07T09:01:34.962Z,12.30
2017-10-07T09:04:01.200Z,9.07
2017-10-07T09:06:27.436Z,8.20
2017-10-07T09:08:53.774Z,9.60
2017-10-07T09:11:20.068Z,16.03
2017-10-07T09:13:46.292Z,14.30
2017-10-07T09:16:12.715Z,9.07
2017-10-07T09:18:38.944Z,11.50
2017-10-07T09:21:05.196Z,39.97
2017-10-07T09:23:31.434Z,16.23
2017-10-07T09:25:57.652Z,9.10
2017-10-07T09:28:23.853Z,7.17
2017-10-07T09:30:50.123Z,11.60
2017-10-07T09:33:16.360Z,12.33
2017-10-07T09:35:42.594Z,13.20
2017-10-07T09:38:08.807Z,9.13
2017-10-07T09:40:35.079Z,7.37
2017-10-07T09:43:01.478Z,6.13
2017-10-07T09:45:27.683Z,5.05
2017-10-07T09:47:53.933Z,4.22
2017-10-07T09:50:20.132Z,12.10
2017-10-07T09:52:46.391Z,4.90
2017-10-07T09:55:12.592Z,5.60
2017-10-07T09:57:38.836Z,11.70
2017-10-07T10:00:05.054Z,16.53
2017-10-07T10:02:31.291Z,10.20
2017-10-07T10:04:57.489Z,9.10
2017-10-07T10:07:23.689Z,13.37
2017-10-07T10:09:49.913Z,7.23
2017-10-07T10:12:16.142Z,21.00
2017-10-07T10:14:42.354Z,7.57
2017-10-07T10:17:08.609Z,7.33
2017-10-07T10:19:34.984Z,7.23
2017-10-07T10:22:01.184Z,7.63
2017-10-07T10:24:27.425Z,23.17
2017-10-07T10:26:53.646Z,11.60
2017-10-07T10:29:19.846Z,10.90
2017-10-07T10:31:46.042Z,14.47
2017-10-07T10:34:12.325Z,9.87
2017-10-07T10:36:38.543Z,11.30
2017-10-07T10:39:04.764Z,6.27
2017-10-07T10:41:30.976Z,6.70
2017-10-07T10:43:57.234Z,6.73
2017-10-07T10:46:23.448Z,6.33
2017-10-07T10:48:49.709Z,8.63
2017-10-07T10:51:15.913Z,8.30
2017-10-07T10:53:42.148Z,7.73
2017-10-07T10:56:08.408Z,8.30
2017-10-07T10:58:34.632Z,7.53
2017-10-07T11:01:00.858Z,8.20
2017-10-07T11:03:27.068Z,7.00
2017-10-07T11:05:53.299Z,6.10
2017-10-07T11:08:19.537Z,7.33
2017-10-07T11:10:45.810Z,5.83
2017-10-07T11:13:12.041Z,7.90
2017-10-07T11:15:38.239Z,6.60
2017-10-07T11:18:04.471Z,7.90
2017-10-07T11:20:30.686Z,6.20
2017-10-07T11:22:56.915Z,5.13
2017-10-07T11:25:23.127Z,7.50
2017-10-07T11:27:49.339Z,5.27
2017-10-07T11:30:15.531Z,3.30
2017-10-07T11:32:41.741Z,5.47
2017-10-07T11:35:08.015Z,4.80
2017-10-07T11:37:34.265Z,5.53
2017-10-07T11:40:00.500Z,10.13
2017-10-07T11:42:26.724Z,6.90
2017-10-07T11:44:52.950Z,9.20
2017-10-07T11:47:19.199Z,6.23
2017-10-07T11:49:45.393Z,8.23
2017-10-07T11:52:11.595Z,7.60
2017-10-07T11:54:37.916Z,4.37
2017-10-07T11:57:04.176Z,4.50
2017-10-07T11:59:30.485Z,7.60
2017-10-07T12:01:56.700Z,5.70
2017-10-07T12:04:22.938Z,4.40
2017-10-07T12:06:49.187Z,3.90
2017-10-07T12:09:15.445Z,5.20
2017-10-07T12:11:41.700Z,12.20
2017-10-07T12:14:08.055Z,15.10
2017-10-07T12:16:34.568Z,6.87
2017-10-07T12:19:00.827Z,28.50
2017-10-07T12:21:27.253Z,9.83
2017-10-07T12:23:53.493Z,9.60
2017-10-07T12:26:19.697Z,23.53
2017-10-07T12:28:46.064Z,10.10
2017-10-07T12:31:12.331Z,8.17
2017-10-07T12:33:38.551Z,6.27
2017-10-07T12:36:04.772Z,9.00
2017-10-07T12:38:31.198Z,7.60
2017-10-07T12:40:57.436Z,6.10
2017-10-07T12:43:23.676Z,9.67
2017-10-07T12:45:49.926Z,9.13
2017-10-07T12:48:16.141Z,10.50
2017-10-07T12:50:42.421Z,19.30
2017-10-07T12:53:08.650Z,7.40
2017-10-07T12:55:34.857Z,7.80
2017-10-07T12:58:01.138Z,8.27
2017-10-07T13:00:27.362Z,9.47
2017-10-07T13:02:53.584Z,10.10
2017-10-07T13:05:20.476Z,6.10
2017-10-07T13:07:46.697Z,6.80
2017-10-07T13:10:12.920Z,11.53
2017-10-07T13:12:39.227Z,13.00
2017-10-07T13:15:05.419Z,12.37
2017-10-07T13:17:31.679Z,12.57
2017-10-07T13:19:57.914Z,10.33
2017-10-07T13:22:24.130Z,8.30
2017-10-07T13:24:50.565Z,6.47
2017-10-07T13:27:16.768Z,6.60
2017-10-07T13:29:42.991Z,8.13
2017-10-07T13:32:09.238Z,10.57
2017-10-07T13:34:35.464Z,5.90
2017-10-07T13:37:01.682Z,12.43
2017-10-07T13:39:27.918Z,27.73
2017-10-07T13:41:54.123Z,8.10
2017-10-07T13:44:20.344Z,7.53
2017-10-07T13:46:46.551Z,8.77
2017-10-07T13:49:12.946Z,5.97
2017-10-07T13:51:39.232Z,16.80
2017-10-07T13:54:05.433Z,17.63
2017-10-07T13:56:31.710Z,9.93
2017-10-07T13:58:57.916Z,16.40
2017-10-07T14:01:24.139Z,16.90
2017-10-07T14:03:50.358Z,12.83
2017-10-07T14:06:16.581Z,12.30
2017-10-07T14:08:42.822Z,13.57
2017-10-07T14:11:09.039Z,9.47
2017-10-07T14:13:35.237Z,14.63
2017-10-07T14:16:01.447Z,7.80
2017-10-07T14:18:27.665Z,13.67
2017-10-07T14:20:53.879Z,13.20
2017-10-07T14:23:20.274Z,9.13
2017-10-07T14:25:46.679Z,8.53
2017-10-07T14:28:12.951Z,13.00
2017-10-07T14:30:39.180Z,11.70
2017-10-07T14:33:05.443Z,16.53
2017-10-07T14:35:31.661Z,16.87
2017-10-07T14:37:57.979Z,7.27
2017-10-07T14:40:25.057Z,9.70
2017-10-07T14:42:52.586Z,21.77
2017-10-07T14:45:20.070Z,11.40
2017-10-07T14:47:47.739Z,11.63
2017-10-07T14:50:15.163Z,15.50
2017-10-07T14:52:42.340Z,9.40
2017-10-07T14:55:08.666Z,13.40
2017-10-07T14:57:34.928Z,20.93
2017-10-07T15:00:01.139Z,25.13
2017-10-07T15:02:27.445Z,12.43
2017-10-07T15:04:53.689Z,8.67
2017-10-07T15:07:20.094Z,12.40
2017-10-07T15:09:46.291Z,11.63
2017-10-07T15:12:12.535Z,11.33
2017-10-07T15:14:38.718Z,9.83
2017-10-07T15:17:05.017Z,10.87
2017-10-07T15:19:31.256Z,10.40
2017-10-07T15:21:57.457Z,11.47
2017-10-07T15:24:23.675Z,13.40
2017-10-07T15:26:49.940Z,20.73
2017-10-07T15:29:16.142Z,9.87
2017-10-07T15:31:42.364Z,14.77
2017-10-07T15:34:08.610Z,20.00
2017-10-07T15:36:34.821Z,14.40
2017-10-07T15:39:01.016Z,12.40
2017-10-07T15:41:27.249Z,7.33
2017-10-07T15:43:53.449Z,11.00
2017-10-07T15:46:19.652Z,12.17
2017-10-07T15:48:45.901Z,14.03
2017-10-07T15:51:12.087Z,9.50
2017-10-07T15:53:38.285Z,11.43
2017-10-07T15:56:04.534Z,13.60
2017-10-07T15:58:30.921Z,18.87
2017-10-07T16:00:57.129Z,11.30
2017-10-07T16:03:23.371Z,11.20
2017-10-07T16:05:49.588Z,14.30
2017-10-07T16:08:15.806Z,19.73
2017-10-07T16:10:42.067Z,19.07
2017-10-07T16:13:08.316Z,63.50
2017-10-07T16:15:34.536Z,26.43
2017-10-07T16:18:00.789Z,21.40
2017-10-07T16:20:26.989Z,19.27
2017-10-07T16:22:53.227Z,16.00
2017-10-07T16:25:19.482Z,18.43
2017-10-07T16:27:45.702Z,18.70
2017-10-07T16:30:11.905Z,11.90
2017-10-07T16:32:38.173Z,17.57
2017-10-07T16:35:04.372Z,35.00
2017-10-07T16:37:30.702Z,31.00
2017-10-07T16:39:56.953Z,24.43
2017-10-07T16:42:23.150Z,17.10
2017-10-07T16:44:49.353Z,11.60
2017-10-07T16:47:15.652Z,18.77
2017-10-07T16:49:41.854Z,17.20
2017-10-07T16:52:08.076Z,17.93
2017-10-07T16:54:34.336Z,18.47
2017-10-07T16:57:00.546Z,15.87
2017-10-07T16:59:26.754Z,17.50
2017-10-07T17:01:52.987Z,13.20
2017-10-07T17:04:19.202Z,15.07
2017-10-07T17:06:45.419Z,14.90
2017-10-07T17:09:11.673Z,12.83
2017-10-07T17:11:37.888Z,11.23
2017-10-07T17:14:04.104Z,11.30
2017-10-07T17:16:30.392Z,10.47
2017-10-07T17:18:56.588Z,10.60
2017-10-07T17:21:22.803Z,14.87
2017-10-07T17:23:49.058Z,11.93
2017-10-07T17:26:15.268Z,14.30
2017-10-07T17:28:41.506Z,13.03
2017-10-07T17:31:07.750Z,12.80
2017-10-07T17:33:33.967Z,8.97
2017-10-07T17:36:00.229Z,9.20
2017-10-07T17:38:26.478Z,8.87
2017-10-07T17:40:52.708Z,10.90
2017-10-07T17:43:18.949Z,13.73
2017-10-07T17:45:45.214Z,14.77
2017-10-07T17:48:11.432Z,11.43
2017-10-07T17:50:37.649Z,11.73
2017-10-07T17:53:03.893Z,11.90
2017-10-07T17:58:01.664Z,7.83
2017-10-07T18:00:27.896Z,10.90
2017-10-07T18:02:54.108Z,9.67
2017-10-07T18:05:20.307Z,9.83
2017-10-07T18:07:46.521Z,8.80
2017-10-07T18:10:12.736Z,10.23
2017-10-07T18:12:39.013Z,8.70
2017-10-07T18:15:05.246Z,7.63
2017-10-07T18:17:31.455Z,7.70
2017-10-07T18:19:57.644Z,5.50
2017-10-07T18:22:23.856Z,6.00
2017-10-07T18:24:50.074Z,6.37
2017-10-07T18:27:16.284Z,6.23
2017-10-07T18:29:42.493Z,6.50
2017-10-07T18:32:08.698Z,6.10
2017-10-07T18:34:34.897Z,6.60
2017-10-07T18:37:01.117Z,7.87
2017-10-07T18:39:27.404Z,8.13
2017-10-07T18:41:53.630Z,6.30
2017-10-07T18:44:19.862Z,6.63
2017-10-07T18:46:46.085Z,5.50
2017-10-07T18:49:12.291Z,5.30
2017-10-07T18:51:38.532Z,5.60
2017-10-07T18:54:04.741Z,5.77
2017-10-07T18:56:30.948Z,5.83
2017-10-07T18:58:57.159Z,7.93
2017-10-07T19:01:23.349Z,13.17
2017-10-07T19:03:49.712Z,9.40
2017-10-07T19:06:15.921Z,8.80
2017-10-07T19:08:42.139Z,6.53
2017-10-07T19:11:08.391Z,8.57
2017-10-07T19:13:34.610Z,7.47
2017-10-07T19:16:00.813Z,7.07
2017-10-07T19:18:27.014Z,7.43
2017-10-07T19:20:53.213Z,7.40
2017-10-07T19:23:19.489Z,6.47
2017-10-07T19:25:45.681Z,9.47
2017-10-07T19:28:11.919Z,8.87
2017-10-07T19:30:38.140Z,7.63
2017-10-07T19:33:04.361Z,9.40
2017-10-07T19:35:30.578Z,18.87
2017-10-07T19:37:56.793Z,32.10
2017-10-07T19:40:23.005Z,12.40
2017-10-07T19:42:49.209Z,11.63
2017-10-07T19:45:15.424Z,8.57
2017-10-07T19:47:41.801Z,11.50
2017-10-07T19:50:08.016Z,8.97
2017-10-07T19:52:34.240Z,8.60
2017-10-07T19:55:00.429Z,10.70
2017-10-07T19:57:26.652Z,13.67
2017-10-07T19:59:52.868Z,7.33
2017-10-07T20:02:19.059Z,6.13
2017-10-07T20:04:45.296Z,7.10
2017-10-07T20:07:11.509Z,6.50
2017-10-07T20:09:37.716Z,6.10
2017-10-07T20:12:03.965Z,6.80
2017-10-07T20:14:30.205Z,29.17
2017-10-07T20:16:56.429Z,9.83
2017-10-07T20:19:22.661Z,13.10
2017-10-07T20:21:48.887Z,6.20
2017-10-07T20:24:15.105Z,6.77
2017-10-07T20:26:41.351Z,5.90
2017-10-07T20:29:07.554Z,6.50
2017-10-07T20:31:33.781Z,6.53
2017-10-07T20:34:00.014Z,5.17
2017-10-07T20:36:26.257Z,4.30
2017-10-07T20:38:52.472Z,6.10
2017-10-07T20:41:18.721Z,7.40
2017-10-07T20:43:44.941Z,6.10
2017-10-07T20:46:11.166Z,5.30
2017-10-07T20:48:37.400Z,6.27
2017-10-07T20:51:03.612Z,5.13
2017-10-07T20:53:29.802Z,4.20
2017-10-07T20:55:56.027Z,5.17
2017-10-07T20:58:22.228Z,3.53
2017-10-07T21:00:48.428Z,5.70
2017-10-07T21:03:14.667Z,6.00
2017-10-07T21:05:40.892Z,4.80
2017-10-07T21:08:07.093Z,5.53
2017-10-07T21:10:33.317Z,6.27
2017-10-07T21:12:59.546Z,5.03
2017-10-07T21:15:25.801Z,4.23
2017-10-07T21:17:52.766Z,4.90
2017-10-07T21:20:18.973Z,5.63
2017-10-07T21:22:45.173Z,6.50
2017-10-07T21:25:11.408Z,4.87
2017-10-07T21:27:37.617Z,4.40
2017-10-07T21:30:03.842Z,5.00
2017-10-07T21:32:30.053Z,5.20
2017-10-07T21:34:56.265Z,4.20
2017-10-07T21:37:22.473Z,4.90
2017-10-07T21:39:48.709Z,4.97
2017-10-07T21:42:14.912Z,5.90
2017-10-07T21:44:41.093Z,6.97
2017-10-07T21:47:07.328Z,5.40
2017-10-07T21:49:33.632Z,4.47
2017-10-07T21:51:59.850Z,4.93
2017-10-07T21:54:26.078Z,5.50
2017-10-07T21:56:52.296Z,5.00
2017-10-07T21:59:18.532Z,5.47
2017-10-07T22:01:44.743Z,4.40
2017-10-07T22:04:10.969Z,4.43
2017-10-07T22:06:37.179Z,6.00
2017-10-07T22:09:03.399Z,5.73
2017-10-07T22:11:29.611Z,4.60
2017-10-07T22:13:55.881Z,3.80
2017-10-07T22:16:22.093Z,5.30
2017-10-07T22:18:48.296Z,4.17
2017-10-07T22:21:14.513Z,5.70
2017-10-07T22:23:40.775Z,4.23
2017-10-07T22:26:06.996Z,4.30
2017-10-07T22:28:33.201Z,6.17
2017-10-07T22:30:59.428Z,4.50
2017-10-07T22:33:25.649Z,4.40
2017-10-07T22:35:51.970Z,4.63
2017-10-07T22:38:18.245Z,4.60
2017-10-07T22:40:44.508Z,5.57
2017-10-07T22:43:10.746Z,3.37
2017-10-07T22:45:36.964Z,3.80
2017-10-07T22:48:03.170Z,2.93
2017-10-07T22:50:29.379Z,4.13
2017-10-07T22:52:55.598Z,3.87
2017-10-07T22:55:21.818Z,3.53
2017-10-07T22:57:48.061Z,3.10
2017-10-07T23:00:14.273Z,3.40
2017-10-07T23:02:40.474Z,3.53
2017-10-07T23:05:06.683Z,3.30
2017-10-07T23:07:32.903Z,4.33
2017-10-07T23:09:59.112Z,3.40
2017-10-07T23:12:25.528Z,3.50
2017-10-07T23:14:51.806Z,3.20
2017-10-07T23:17:18.052Z,2.87
2017-10-07T23:19:44.278Z,2.80
2017-10-07T23:22:10.958Z,2.93
2017-10-07T23:24:37.150Z,3.60
2017-10-07T23:27:03.348Z,3.17
2017-10-07T23:29:29.565Z,4.40
2017-10-07T23:31:55.803Z,4.47
2017-10-07T23:34:22.019Z,3.53
2017-10-07T23:36:48.250Z,2.27
2017-10-07T23:39:14.476Z,2.50
2017-10-07T23:41:40.699Z,2.30
2017-10-07T23:44:06.913Z,3.00
2017-10-07T23:46:33.124Z,2.30
2017-10-07T23:48:59.353Z,2.67
2017-10-07T23:51:25.600Z,2.87
2017-10-07T23:53:51.863Z,2.77
2017-10-07T23:56:18.085Z,1.90
2017-10-07T23:58:44.305Z,3.07
